sensor_id;sensor_type;location;lat;lon;timestamp;P1;durP1;ratioP1;P2;durP2;ratioP2
39814;SDS011;25495;45.948;4.568;2022-10-16T00:01:51;0.63;;;0.60;;
39814;SDS011;25495;45.948;4.568;2022-10-16T00:04:17;1.25;;;0.70;;
39814;SDS011;25495;45.948;4.568;2022-10-16T00:06:43;1.58;;;0.65;;
39814;SDS011;25495;45.948;4.568;2022-10-16T00:09:09;0.88;;;0.50;;
39814;SDS011;25495;45.948;4.568;2022-10-16T00:11:35;0.65;;;0.50;;
39814;SDS011;25495;45.948;4.568;2022-10-16T00:14:04;1.45;;;0.80;;
39814;SDS011;25495;45.948;4.568;2022-10-16T00:16:32;4.10;;;0.55;;
39814;SDS011;25495;45.948;4.568;2022-10-16T00:18:58;1.58;;;0.80;;
39814;SDS011;25495;45.948;4.568;2022-10-16T00:21:25;5.50;;;0.93;;
39814;SDS011;25495;45.948;4.568;2022-10-16T00:23:56;0.77;;;0.60;;
39814;SDS011;25495;45.948;4.568;2022-10-16T00:26:27;1.00;;;0.60;;
39814;SDS011;25495;45.948;4.568;2022-10-16T00:28:54;0.95;;;0.55;;
39814;SDS011;25495;45.948;4.568;2022-10-16T00:31:21;0.88;;;0.73;;
39814;SDS011;25495;45.948;4.568;2022-10-16T00:33:47;2.13;;;0.80;;
39814;SDS011;25495;45.948;4.568;2022-10-16T00:36:15;0.82;;;0.60;;
39814;SDS011;25495;45.948;4.568;2022-10-16T00:38:42;1.42;;;0.73;;
39814;SDS011;25495;45.948;4.568;2022-10-16T00:41:16;1.65;;;0.68;;
39814;SDS011;25495;45.948;4.568;2022-10-16T00:46:15;1.67;;;0.95;;
39814;SDS011;25495;45.948;4.568;2022-10-16T00:48:46;0.68;;;0.57;;
39814;SDS011;25495;45.948;4.568;2022-10-16T00:51:18;1.25;;;0.75;;
39814;SDS011;25495;45.948;4.568;2022-10-16T00:53:48;1.65;;;0.90;;
39814;SDS011;25495;45.948;4.568;2022-10-16T00:56:14;0.85;;;0.60;;
39814;SDS011;25495;45.948;4.568;2022-10-16T00:58:41;0.80;;;0.70;;
39814;SDS011;25495;45.948;4.568;2022-10-16T01:01:07;0.90;;;0.63;;
39814;SDS011;25495;45.948;4.568;2022-10-16T01:03:33;0.95;;;0.70;;
39814;SDS011;25495;45.948;4.568;2022-10-16T01:09:04;1.17;;;0.80;;
39814;SDS011;25495;45.948;4.568;2022-10-16T01:12:09;2.75;;;1.00;;
39814;SDS011;25495;45.948;4.568;2022-10-16T01:17:31;1.63;;;0.68;;
39814;SDS011;25495;45.948;4.568;2022-10-16T01:20:04;1.27;;;0.70;;
39814;SDS011;25495;45.948;4.568;2022-10-16T01:28:30;0.60;;;0.57;;
39814;SDS011;25495;45.948;4.568;2022-10-16T01:31:03;2.53;;;0.73;;
39814;SDS011;25495;45.948;4.568;2022-10-16T01:33:31;0.90;;;0.60;;
39814;SDS011;25495;45.948;4.568;2022-10-16T01:36:03;1.85;;;0.80;;
39814;SDS011;25495;45.948;4.568;2022-10-16T01:38:44;1.30;;;0.70;;
39814;SDS011;25495;45.948;4.568;2022-10-16T01:41:14;1.20;;;0.73;;
39814;SDS011;25495;45.948;4.568;2022-10-16T01:43:58;0.65;;;0.60;;
39814;SDS011;25495;45.948;4.568;2022-10-16T01:46:39;1.08;;;0.65;;
39814;SDS011;25495;45.948;4.568;2022-10-16T01:49:07;1.20;;;0.70;;
39814;SDS011;25495;45.948;4.568;2022-10-16T01:51:35;1.00;;;0.60;;
39814;SDS011;25495;45.948;4.568;2022-10-16T01:54:03;0.70;;;0.50;;
39814;SDS011;25495;45.948;4.568;2022-10-16T01:56:31;2.72;;;0.85;;
39814;SDS011;25495;45.948;4.568;2022-10-16T01:59:00;1.52;;;0.80;;
39814;SDS011;25495;45.948;4.568;2022-10-16T02:01:30;0.95;;;0.70;;
39814;SDS011;25495;45.948;4.568;2022-10-16T02:03:59;3.20;;;0.80;;
39814;SDS011;25495;45.948;4.568;2022-10-16T02:06:33;1.88;;;0.60;;
39814;SDS011;25495;45.948;4.568;2022-10-16T02:08:59;0.77;;;0.50;;
39814;SDS011;25495;45.948;4.568;2022-10-16T02:11:25;1.20;;;1.00;;
39814;SDS011;25495;45.948;4.568;2022-10-16T02:13:53;2.13;;;0.68;;
39814;SDS011;25495;45.948;4.568;2022-10-16T02:16:32;3.63;;;0.90;;
39814;SDS011;25495;45.948;4.568;2022-10-16T02:19:04;3.70;;;1.08;;
39814;SDS011;25495;45.948;4.568;2022-10-16T02:21:44;1.38;;;0.77;;
39814;SDS011;25495;45.948;4.568;2022-10-16T02:24:22;2.03;;;1.02;;
39814;SDS011;25495;45.948;4.568;2022-10-16T02:32:23;0.80;;;0.70;;
39814;SDS011;25495;45.948;4.568;2022-10-16T02:34:55;1.08;;;0.77;;
39814;SDS011;25495;45.948;4.568;2022-10-16T02:37:23;1.13;;;0.68;;
39814;SDS011;25495;45.948;4.568;2022-10-16T02:39:50;1.50;;;0.98;;
39814;SDS011;25495;45.948;4.568;2022-10-16T02:42:17;1.77;;;0.82;;
39814;SDS011;25495;45.948;4.568;2022-10-16T02:44:43;17.25;;;5.43;;
39814;SDS011;25495;45.948;4.568;2022-10-16T02:47:09;6.03;;;2.63;;
39814;SDS011;25495;45.948;4.568;2022-10-16T02:49:35;4.13;;;1.13;;
39814;SDS011;25495;45.948;4.568;2022-10-16T02:52:01;0.88;;;0.70;;
39814;SDS011;25495;45.948;4.568;2022-10-16T02:54:26;1.75;;;0.82;;
39814;SDS011;25495;45.948;4.568;2022-10-16T02:56:52;3.80;;;1.27;;
39814;SDS011;25495;45.948;4.568;2022-10-16T02:59:18;3.72;;;1.42;;
39814;SDS011;25495;45.948;4.568;2022-10-16T03:01:44;2.90;;;1.35;;
39814;SDS011;25495;45.948;4.568;2022-10-16T03:04:09;1.27;;;0.70;;
39814;SDS011;25495;45.948;4.568;2022-10-16T03:06:35;1.38;;;0.63;;
39814;SDS011;25495;45.948;4.568;2022-10-16T03:09:01;1.50;;;0.93;;
39814;SDS011;25495;45.948;4.568;2022-10-16T03:11:27;2.47;;;0.90;;
39814;SDS011;25495;45.948;4.568;2022-10-16T03:13:53;3.60;;;0.98;;
39814;SDS011;25495;45.948;4.568;2022-10-16T03:16:19;1.90;;;1.02;;
39814;SDS011;25495;45.948;4.568;2022-10-16T03:18:47;3.10;;;1.02;;
39814;SDS011;25495;45.948;4.568;2022-10-16T03:21:14;1.80;;;1.10;;
39814;SDS011;25495;45.948;4.568;2022-10-16T03:23:40;1.30;;;0.77;;
39814;SDS011;25495;45.948;4.568;2022-10-16T03:26:06;1.00;;;0.80;;
39814;SDS011;25495;45.948;4.568;2022-10-16T03:28:32;1.00;;;0.73;;
39814;SDS011;25495;45.948;4.568;2022-10-16T03:30:57;0.90;;;0.60;;
39814;SDS011;25495;45.948;4.568;2022-10-16T03:33:23;1.70;;;0.77;;
39814;SDS011;25495;45.948;4.568;2022-10-16T03:35:52;0.75;;;0.65;;
39814;SDS011;25495;45.948;4.568;2022-10-16T03:38:19;1.35;;;0.77;;
39814;SDS011;25495;45.948;4.568;2022-10-16T03:40:46;1.92;;;0.90;;
39814;SDS011;25495;45.948;4.568;2022-10-16T03:43:12;1.50;;;1.00;;
39814;SDS011;25495;45.948;4.568;2022-10-16T03:45:37;1.65;;;0.75;;
39814;SDS011;25495;45.948;4.568;2022-10-16T03:48:03;4.20;;;0.90;;
39814;SDS011;25495;45.948;4.568;2022-10-16T03:50:29;0.75;;;0.52;;
39814;SDS011;25495;45.948;4.568;2022-10-16T03:52:55;1.08;;;0.80;;
39814;SDS011;25495;45.948;4.568;2022-10-16T03:55:21;1.15;;;0.70;;
39814;SDS011;25495;45.948;4.568;2022-10-16T03:57:47;1.13;;;0.95;;
39814;SDS011;25495;45.948;4.568;2022-10-16T04:00:12;1.20;;;0.77;;
39814;SDS011;25495;45.948;4.568;2022-10-16T04:02:39;3.25;;;1.10;;
39814;SDS011;25495;45.948;4.568;2022-10-16T04:05:05;1.00;;;0.57;;
39814;SDS011;25495;45.948;4.568;2022-10-16T04:07:32;1.92;;;0.65;;
39814;SDS011;25495;45.948;4.568;2022-10-16T04:09:57;3.72;;;1.02;;
39814;SDS011;25495;45.948;4.568;2022-10-16T04:12:24;1.35;;;0.80;;
39814;SDS011;25495;45.948;4.568;2022-10-16T04:14:52;1.00;;;0.55;;
39814;SDS011;25495;45.948;4.568;2022-10-16T04:17:18;1.48;;;0.80;;
39814;SDS011;25495;45.948;4.568;2022-10-16T04:19:44;1.13;;;0.75;;
39814;SDS011;25495;45.948;4.568;2022-10-16T04:22:11;4.55;;;0.95;;
39814;SDS011;25495;45.948;4.568;2022-10-16T04:24:37;0.90;;;0.70;;
39814;SDS011;25495;45.948;4.568;2022-10-16T04:27:02;0.60;;;0.60;;
39814;SDS011;25495;45.948;4.568;2022-10-16T04:29:28;2.80;;;0.80;;
39814;SDS011;25495;45.948;4.568;2022-10-16T04:31:54;1.73;;;0.90;;
39814;SDS011;25495;45.948;4.568;2022-10-16T04:34:20;3.50;;;1.08;;
39814;SDS011;25495;45.948;4.568;2022-10-16T04:36:48;2.13;;;0.90;;
39814;SDS011;25495;45.948;4.568;2022-10-16T04:39:15;4.88;;;1.30;;
39814;SDS011;25495;45.948;4.568;2022-10-16T04:41:41;4.45;;;1.42;;
39814;SDS011;25495;45.948;4.568;2022-10-16T04:44:07;1.95;;;1.20;;
39814;SDS011;25495;45.948;4.568;2022-10-16T04:46:33;2.30;;;1.20;;
39814;SDS011;25495;45.948;4.568;2022-10-16T04:48:58;2.35;;;1.70;;
39814;SDS011;25495;45.948;4.568;2022-10-16T04:51:24;3.72;;;1.80;;
39814;SDS011;25495;45.948;4.568;2022-10-16T04:53:51;2.10;;;1.38;;
39814;SDS011;25495;45.948;4.568;2022-10-16T04:56:17;4.78;;;1.67;;
39814;SDS011;25495;45.948;4.568;2022-10-16T04:58:42;3.13;;;1.40;;
39814;SDS011;25495;45.948;4.568;2022-10-16T05:01:08;3.70;;;1.63;;
39814;SDS011;25495;45.948;4.568;2022-10-16T05:03:34;1.95;;;1.45;;
39814;SDS011;25495;45.948;4.568;2022-10-16T05:06:00;2.38;;;1.33;;
39814;SDS011;25495;45.948;4.568;2022-10-16T05:08:26;3.00;;;1.40;;
39814;SDS011;25495;45.948;4.568;2022-10-16T05:10:51;4.28;;;1.50;;
39814;SDS011;25495;45.948;4.568;2022-10-16T05:13:17;1.98;;;1.50;;
39814;SDS011;25495;45.948;4.568;2022-10-16T05:15:46;2.72;;;1.60;;
39814;SDS011;25495;45.948;4.568;2022-10-16T05:18:13;5.03;;;2.15;;
39814;SDS011;25495;45.948;4.568;2022-10-16T05:20:39;2.42;;;1.63;;
39814;SDS011;25495;45.948;4.568;2022-10-16T05:23:05;6.15;;;1.40;;
39814;SDS011;25495;45.948;4.568;2022-10-16T05:25:31;3.55;;;1.83;;
39814;SDS011;25495;45.948;4.568;2022-10-16T05:27:57;2.40;;;1.75;;
39814;SDS011;25495;45.948;4.568;2022-10-16T05:30:22;3.05;;;1.55;;
39814;SDS011;25495;45.948;4.568;2022-10-16T05:32:49;3.40;;;1.60;;
39814;SDS011;25495;45.948;4.568;2022-10-16T05:35:17;3.67;;;2.10;;
39814;SDS011;25495;45.948;4.568;2022-10-16T05:37:44;4.10;;;1.70;;
39814;SDS011;25495;45.948;4.568;2022-10-16T05:40:10;1.95;;;1.63;;
39814;SDS011;25495;45.948;4.568;2022-10-16T05:42:38;3.92;;;1.80;;
39814;SDS011;25495;45.948;4.568;2022-10-16T05:45:04;3.45;;;2.03;;
39814;SDS011;25495;45.948;4.568;2022-10-16T05:47:31;5.68;;;1.63;;
39814;SDS011;25495;45.948;4.568;2022-10-16T05:49:57;3.03;;;2.00;;
39814;SDS011;25495;45.948;4.568;2022-10-16T05:52:23;3.22;;;1.67;;
39814;SDS011;25495;45.948;4.568;2022-10-16T05:54:48;3.88;;;1.80;;
39814;SDS011;25495;45.948;4.568;2022-10-16T05:57:14;2.22;;;1.67;;
39814;SDS011;25495;45.948;4.568;2022-10-16T05:59:40;2.85;;;1.77;;
39814;SDS011;25495;45.948;4.568;2022-10-16T06:02:08;2.88;;;1.95;;
39814;SDS011;25495;45.948;4.568;2022-10-16T06:04:37;7.93;;;2.10;;
39814;SDS011;25495;45.948;4.568;2022-10-16T06:07:03;5.50;;;1.92;;
39814;SDS011;25495;45.948;4.568;2022-10-16T06:09:29;1.98;;;1.60;;
39814;SDS011;25495;45.948;4.568;2022-10-16T06:11:55;2.83;;;1.55;;
39814;SDS011;25495;45.948;4.568;2022-10-16T06:14:20;6.53;;;2.00;;
39814;SDS011;25495;45.948;4.568;2022-10-16T06:16:46;3.83;;;1.67;;
39814;SDS011;25495;45.948;4.568;2022-10-16T06:19:12;4.07;;;2.38;;
39814;SDS011;25495;45.948;4.568;2022-10-16T06:21:38;3.72;;;2.08;;
39814;SDS011;25495;45.948;4.568;2022-10-16T06:24:03;3.03;;;1.77;;
39814;SDS011;25495;45.948;4.568;2022-10-16T06:26:30;3.05;;;2.15;;
39814;SDS011;25495;45.948;4.568;2022-10-16T06:28:57;2.40;;;1.50;;
39814;SDS011;25495;45.948;4.568;2022-10-16T06:31:24;3.35;;;1.58;;
39814;SDS011;25495;45.948;4.568;2022-10-16T06:33:52;2.80;;;1.75;;
39814;SDS011;25495;45.948;4.568;2022-10-16T06:36:19;2.40;;;2.00;;
39814;SDS011;25495;45.948;4.568;2022-10-16T06:38:45;3.97;;;2.03;;
39814;SDS011;25495;45.948;4.568;2022-10-16T06:41:12;3.65;;;2.45;;
39814;SDS011;25495;45.948;4.568;2022-10-16T06:43:39;3.80;;;2.03;;
39814;SDS011;25495;45.948;4.568;2022-10-16T06:46:06;3.95;;;2.28;;
39814;SDS011;25495;45.948;4.568;2022-10-16T06:48:34;5.25;;;2.30;;
39814;SDS011;25495;45.948;4.568;2022-10-16T06:51:05;3.75;;;2.45;;
39814;SDS011;25495;45.948;4.568;2022-10-16T06:53:34;4.03;;;2.70;;
39814;SDS011;25495;45.948;4.568;2022-10-16T06:56:14;4.68;;;2.55;;
39814;SDS011;25495;45.948;4.568;2022-10-16T06:58:43;4.57;;;2.55;;
39814;SDS011;25495;45.948;4.568;2022-10-16T07:01:10;2.88;;;2.40;;
39814;SDS011;25495;45.948;4.568;2022-10-16T07:03:37;3.67;;;2.42;;
39814;SDS011;25495;45.948;4.568;2022-10-16T07:06:05;3.60;;;2.30;;
39814;SDS011;25495;45.948;4.568;2022-10-16T07:08:32;4.93;;;2.30;;
39814;SDS011;25495;45.948;4.568;2022-10-16T07:11:00;6.22;;;2.25;;
39814;SDS011;25495;45.948;4.568;2022-10-16T07:13:27;6.25;;;3.00;;
39814;SDS011;25495;45.948;4.568;2022-10-16T07:15:53;4.68;;;3.00;;
39814;SDS011;25495;45.948;4.568;2022-10-16T07:18:19;5.25;;;2.80;;
39814;SDS011;25495;45.948;4.568;2022-10-16T07:20:44;4.25;;;2.88;;
39814;SDS011;25495;45.948;4.568;2022-10-16T07:23:10;4.68;;;3.22;;
39814;SDS011;25495;45.948;4.568;2022-10-16T07:25:36;4.65;;;2.78;;
39814;SDS011;25495;45.948;4.568;2022-10-16T07:28:02;5.10;;;3.60;;
39814;SDS011;25495;45.948;4.568;2022-10-16T07:30:28;8.05;;;3.60;;
39814;SDS011;25495;45.948;4.568;2022-10-16T07:32:54;4.82;;;3.53;;
39814;SDS011;25495;45.948;4.568;2022-10-16T07:35:19;4.60;;;3.20;;
39814;SDS011;25495;45.948;4.568;2022-10-16T07:37:45;4.78;;;3.15;;
39814;SDS011;25495;45.948;4.568;2022-10-16T07:40:11;10.70;;;3.97;;
39814;SDS011;25495;45.948;4.568;2022-10-16T07:42:37;5.43;;;3.65;;
39814;SDS011;25495;45.948;4.568;2022-10-16T07:45:03;10.73;;;4.13;;
39814;SDS011;25495;45.948;4.568;2022-10-16T07:47:29;7.35;;;3.70;;
39814;SDS011;25495;45.948;4.568;2022-10-16T07:49:55;5.32;;;3.38;;
39814;SDS011;25495;45.948;4.568;2022-10-16T07:52:21;10.93;;;4.80;;
39814;SDS011;25495;45.948;4.568;2022-10-16T07:54:47;7.63;;;4.43;;
39814;SDS011;25495;45.948;4.568;2022-10-16T07:57:13;6.63;;;3.55;;
39814;SDS011;25495;45.948;4.568;2022-10-16T07:59:44;7.90;;;3.97;;
39814;SDS011;25495;45.948;4.568;2022-10-16T08:02:11;7.05;;;4.18;;
39814;SDS011;25495;45.948;4.568;2022-10-16T08:04:37;6.68;;;3.92;;
39814;SDS011;25495;45.948;4.568;2022-10-16T08:07:03;5.00;;;3.35;;
39814;SDS011;25495;45.948;4.568;2022-10-16T08:09:29;7.05;;;4.00;;
39814;SDS011;25495;45.948;4.568;2022-10-16T08:11:55;5.95;;;3.50;;
39814;SDS011;25495;45.948;4.568;2022-10-16T08:14:20;4.90;;;3.67;;
39814;SDS011;25495;45.948;4.568;2022-10-16T08:16:46;7.18;;;3.83;;
39814;SDS011;25495;45.948;4.568;2022-10-16T08:19:12;8.20;;;3.90;;
39814;SDS011;25495;45.948;4.568;2022-10-16T08:21:38;7.68;;;4.07;;
39814;SDS011;25495;45.948;4.568;2022-10-16T08:24:04;4.68;;;3.13;;
39814;SDS011;25495;45.948;4.568;2022-10-16T08:26:32;5.35;;;3.20;;
39814;SDS011;25495;45.948;4.568;2022-10-16T08:28:59;8.20;;;3.28;;
39814;SDS011;25495;45.948;4.568;2022-10-16T08:31:25;6.60;;;3.05;;
39814;SDS011;25495;45.948;4.568;2022-10-16T08:33:53;6.78;;;3.30;;
39814;SDS011;25495;45.948;4.568;2022-10-16T08:36:22;4.60;;;3.72;;
39814;SDS011;25495;45.948;4.568;2022-10-16T08:38:48;5.05;;;3.75;;
39814;SDS011;25495;45.948;4.568;2022-10-16T08:44:20;5.82;;;3.55;;
39814;SDS011;25495;45.948;4.568;2022-10-16T08:47:02;4.43;;;2.63;;
39814;SDS011;25495;45.948;4.568;2022-10-16T08:49:50;6.82;;;3.40;;
39814;SDS011;25495;45.948;4.568;2022-10-16T08:52:22;7.38;;;3.00;;
39814;SDS011;25495;45.948;4.568;2022-10-16T08:54:49;4.00;;;3.03;;
39814;SDS011;25495;45.948;4.568;2022-10-16T08:57:19;6.13;;;3.45;;
39814;SDS011;25495;45.948;4.568;2022-10-16T08:59:47;6.20;;;3.35;;
39814;SDS011;25495;45.948;4.568;2022-10-16T09:07:51;4.88;;;3.08;;
39814;SDS011;25495;45.948;4.568;2022-10-16T09:18:48;2.88;;;1.98;;
39814;SDS011;25495;45.948;4.568;2022-10-16T09:21:35;3.70;;;2.22;;
39814;SDS011;25495;45.948;4.568;2022-10-16T09:24:13;3.53;;;2.33;;
39814;SDS011;25495;45.948;4.568;2022-10-16T09:26:41;2.35;;;2.13;;
39814;SDS011;25495;45.948;4.568;2022-10-16T09:29:17;3.42;;;2.38;;
39814;SDS011;25495;45.948;4.568;2022-10-16T09:31:50;3.30;;;2.45;;
39814;SDS011;25495;45.948;4.568;2022-10-16T09:37:09;4.10;;;2.40;;
39814;SDS011;25495;45.948;4.568;2022-10-16T09:39:46;3.80;;;2.13;;
39814;SDS011;25495;45.948;4.568;2022-10-16T09:42:17;4.55;;;2.40;;
39814;SDS011;25495;45.948;4.568;2022-10-16T09:44:51;4.50;;;2.30;;
39814;SDS011;25495;45.948;4.568;2022-10-16T09:47:28;4.53;;;2.47;;
39814;SDS011;25495;45.948;4.568;2022-10-16T09:52:27;7.32;;;2.67;;
39814;SDS011;25495;45.948;4.568;2022-10-16T09:54:54;4.47;;;2.90;;
39814;SDS011;25495;45.948;4.568;2022-10-16T09:57:24;2.85;;;2.40;;
39814;SDS011;25495;45.948;4.568;2022-10-16T09:59:51;5.97;;;2.70;;
39814;SDS011;25495;45.948;4.568;2022-10-16T10:02:23;6.40;;;2.80;;
39814;SDS011;25495;45.948;4.568;2022-10-16T10:04:52;8.63;;;3.00;;
39814;SDS011;25495;45.948;4.568;2022-10-16T10:07:30;3.40;;;2.45;;
39814;SDS011;25495;45.948;4.568;2022-10-16T10:10:04;4.05;;;2.22;;
39814;SDS011;25495;45.948;4.568;2022-10-16T10:12:31;4.20;;;2.40;;
39814;SDS011;25495;45.948;4.568;2022-10-16T10:15:07;6.38;;;2.55;;
39814;SDS011;25495;45.948;4.568;2022-10-16T10:17:53;3.60;;;2.45;;
39814;SDS011;25495;45.948;4.568;2022-10-16T10:22:54;3.08;;;2.35;;
39814;SDS011;25495;45.948;4.568;2022-10-16T10:39:47;5.30;;;2.72;;
39814;SDS011;25495;45.948;4.568;2022-10-16T10:45:16;4.15;;;2.53;;
39814;SDS011;25495;45.948;4.568;2022-10-16T10:50:45;7.13;;;2.63;;
39814;SDS011;25495;45.948;4.568;2022-10-16T11:01:14;3.72;;;2.72;;
39814;SDS011;25495;45.948;4.568;2022-10-16T11:04:19;5.20;;;2.60;;
39814;SDS011;25495;45.948;4.568;2022-10-16T11:07:17;5.88;;;2.40;;
39814;SDS011;25495;45.948;4.568;2022-10-16T11:09:47;3.00;;;2.70;;
39814;SDS011;25495;45.948;4.568;2022-10-16T11:12:19;5.70;;;2.60;;
39814;SDS011;25495;45.948;4.568;2022-10-16T11:20:32;4.90;;;2.60;;
39814;SDS011;25495;45.948;4.568;2022-10-16T11:23:14;3.58;;;2.58;;
39814;SDS011;25495;45.948;4.568;2022-10-16T11:25:46;3.17;;;2.38;;
39814;SDS011;25495;45.948;4.568;2022-10-16T11:31:11;4.07;;;2.87;;
39814;SDS011;25495;45.948;4.568;2022-10-16T11:39:45;4.38;;;2.10;;
39814;SDS011;25495;45.948;4.568;2022-10-16T11:42:19;5.57;;;2.10;;
39814;SDS011;25495;45.948;4.568;2022-10-16T11:47:35;3.88;;;2.13;;
39814;SDS011;25495;45.948;4.568;2022-10-16T11:50:22;8.80;;;2.35;;
39814;SDS011;25495;45.948;4.568;2022-10-16T11:53:13;4.15;;;2.40;;
39814;SDS011;25495;45.948;4.568;2022-10-16T11:55:57;5.65;;;2.20;;
39814;SDS011;25495;45.948;4.568;2022-10-16T11:58:33;2.97;;;2.25;;
39814;SDS011;25495;45.948;4.568;2022-10-16T12:03:47;2.25;;;1.90;;
39814;SDS011;25495;45.948;4.568;2022-10-16T12:06:27;3.55;;;2.00;;
39814;SDS011;25495;45.948;4.568;2022-10-16T12:09:25;6.75;;;2.65;;
39814;SDS011;25495;45.948;4.568;2022-10-16T12:11:54;3.17;;;2.05;;
39814;SDS011;25495;45.948;4.568;2022-10-16T12:16:54;3.38;;;2.05;;
39814;SDS011;25495;45.948;4.568;2022-10-16T12:19:22;2.22;;;1.95;;
39814;SDS011;25495;45.948;4.568;2022-10-16T12:21:49;5.80;;;2.28;;
39814;SDS011;25495;45.948;4.568;2022-10-16T12:24:31;5.40;;;2.42;;
39814;SDS011;25495;45.948;4.568;2022-10-16T12:27:04;3.58;;;2.30;;
39814;SDS011;25495;45.948;4.568;2022-10-16T12:29:41;4.55;;;2.50;;
39814;SDS011;25495;45.948;4.568;2022-10-16T12:34:56;7.85;;;2.35;;
39814;SDS011;25495;45.948;4.568;2022-10-16T12:37:24;3.58;;;2.28;;
39814;SDS011;25495;45.948;4.568;2022-10-16T12:40:11;4.85;;;2.42;;
39814;SDS011;25495;45.948;4.568;2022-10-16T12:42:54;3.67;;;1.92;;
39814;SDS011;25495;45.948;4.568;2022-10-16T12:45:30;4.45;;;1.88;;
39814;SDS011;25495;45.948;4.568;2022-10-16T12:47:59;2.97;;;2.10;;
39814;SDS011;25495;45.948;4.568;2022-10-16T12:52:57;3.10;;;1.95;;
39814;SDS011;25495;45.948;4.568;2022-10-16T12:55:24;3.00;;;2.10;;
39814;SDS011;25495;45.948;4.568;2022-10-16T13:03:34;5.22;;;2.28;;
39814;SDS011;25495;45.948;4.568;2022-10-16T13:06:43;3.78;;;2.30;;
39814;SDS011;25495;45.948;4.568;2022-10-16T13:09:24;7.10;;;2.15;;
39814;SDS011;25495;45.948;4.568;2022-10-16T13:14:49;5.65;;;2.35;;
39814;SDS011;25495;45.948;4.568;2022-10-16T13:23:29;3.72;;;2.00;;
39814;SDS011;25495;45.948;4.568;2022-10-16T13:26:23;3.80;;;2.10;;
39814;SDS011;25495;45.948;4.568;2022-10-16T13:29:06;3.60;;;2.15;;
39814;SDS011;25495;45.948;4.568;2022-10-16T13:31:32;2.60;;;1.92;;
39814;SDS011;25495;45.948;4.568;2022-10-16T13:33:59;3.97;;;2.33;;
39814;SDS011;25495;45.948;4.568;2022-10-16T13:36:27;4.68;;;2.13;;
39814;SDS011;25495;45.948;4.568;2022-10-16T13:39:06;2.50;;;1.70;;
39814;SDS011;25495;45.948;4.568;2022-10-16T13:41:42;2.67;;;1.83;;
39814;SDS011;25495;45.948;4.568;2022-10-16T13:44:13;4.97;;;1.88;;
39814;SDS011;25495;45.948;4.568;2022-10-16T13:46:44;3.50;;;2.13;;
39814;SDS011;25495;45.948;4.568;2022-10-16T13:49:14;2.55;;;1.88;;
39814;SDS011;25495;45.948;4.568;2022-10-16T13:51:42;4.20;;;2.20;;
39814;SDS011;25495;45.948;4.568;2022-10-16T13:54:20;5.65;;;2.25;;
39814;SDS011;25495;45.948;4.568;2022-10-16T13:56:46;4.85;;;1.77;;
39814;SDS011;25495;45.948;4.568;2022-10-16T14:02:05;4.13;;;2.20;;
39814;SDS011;25495;45.948;4.568;2022-10-16T14:04:47;2.10;;;1.90;;
39814;SDS011;25495;45.948;4.568;2022-10-16T14:07:14;4.63;;;1.92;;
39814;SDS011;25495;45.948;4.568;2022-10-16T14:09:52;4.35;;;2.00;;
39814;SDS011;25495;45.948;4.568;2022-10-16T14:12:19;3.47;;;2.33;;
39814;SDS011;25495;45.948;4.568;2022-10-16T14:14:47;3.55;;;2.05;;
39814;SDS011;25495;45.948;4.568;2022-10-16T14:17:19;4.47;;;2.08;;
39814;SDS011;25495;45.948;4.568;2022-10-16T14:19:46;2.13;;;1.80;;
39814;SDS011;25495;45.948;4.568;2022-10-16T14:25:02;4.28;;;2.08;;
39814;SDS011;25495;45.948;4.568;2022-10-16T14:27:45;3.33;;;1.80;;
39814;SDS011;25495;45.948;4.568;2022-10-16T14:30:33;3.22;;;1.88;;
39814;SDS011;25495;45.948;4.568;2022-10-16T14:33:02;3.13;;;1.85;;
39814;SDS011;25495;45.948;4.568;2022-10-16T14:35:35;6.63;;;2.10;;
39814;SDS011;25495;45.948;4.568;2022-10-16T14:38:04;3.88;;;1.88;;
39814;SDS011;25495;45.948;4.568;2022-10-16T14:40:32;2.55;;;1.98;;
39814;SDS011;25495;45.948;4.568;2022-10-16T14:43:00;4.20;;;1.80;;
39814;SDS011;25495;45.948;4.568;2022-10-16T14:45:28;3.08;;;1.83;;
39814;SDS011;25495;45.948;4.568;2022-10-16T14:47:57;9.38;;;2.15;;
39814;SDS011;25495;45.948;4.568;2022-10-16T14:50:41;4.63;;;1.77;;
39814;SDS011;25495;45.948;4.568;2022-10-16T14:53:13;3.72;;;2.10;;
39814;SDS011;25495;45.948;4.568;2022-10-16T14:55:40;3.70;;;2.15;;
39814;SDS011;25495;45.948;4.568;2022-10-16T14:58:13;3.08;;;1.88;;
39814;SDS011;25495;45.948;4.568;2022-10-16T15:00:47;3.90;;;2.17;;
39814;SDS011;25495;45.948;4.568;2022-10-16T15:03:14;3.97;;;2.10;;
39814;SDS011;25495;45.948;4.568;2022-10-16T15:05:40;3.58;;;2.38;;
39814;SDS011;25495;45.948;4.568;2022-10-16T15:08:06;3.05;;;1.90;;
39814;SDS011;25495;45.948;4.568;2022-10-16T15:10:33;3.40;;;1.80;;
39814;SDS011;25495;45.948;4.568;2022-10-16T15:13:04;3.53;;;1.98;;
39814;SDS011;25495;45.948;4.568;2022-10-16T15:15:34;2.22;;;1.90;;
39814;SDS011;25495;45.948;4.568;2022-10-16T15:18:02;4.88;;;1.92;;
39814;SDS011;25495;45.948;4.568;2022-10-16T15:20:30;3.72;;;2.25;;
39814;SDS011;25495;45.948;4.568;2022-10-16T15:23:00;3.38;;;1.83;;
39814;SDS011;25495;45.948;4.568;2022-10-16T15:25:36;2.67;;;2.10;;
39814;SDS011;25495;45.948;4.568;2022-10-16T15:28:07;3.35;;;1.80;;
39814;SDS011;25495;45.948;4.568;2022-10-16T15:30:36;3.60;;;1.98;;
39814;SDS011;25495;45.948;4.568;2022-10-16T15:33:04;3.75;;;2.00;;
39814;SDS011;25495;45.948;4.568;2022-10-16T15:35:36;2.40;;;1.63;;
39814;SDS011;25495;45.948;4.568;2022-10-16T15:38:06;3.80;;;2.05;;
39814;SDS011;25495;45.948;4.568;2022-10-16T15:40:35;2.88;;;2.03;;
39814;SDS011;25495;45.948;4.568;2022-10-16T15:43:01;5.15;;;2.10;;
39814;SDS011;25495;45.948;4.568;2022-10-16T15:45:30;3.42;;;2.22;;
39814;SDS011;25495;45.948;4.568;2022-10-16T15:47:57;3.80;;;1.70;;
39814;SDS011;25495;45.948;4.568;2022-10-16T15:50:23;4.10;;;1.83;;
39814;SDS011;25495;45.948;4.568;2022-10-16T15:52:49;2.95;;;2.33;;
39814;SDS011;25495;45.948;4.568;2022-10-16T15:55:16;3.42;;;1.75;;
39814;SDS011;25495;45.948;4.568;2022-10-16T15:57:44;3.20;;;2.00;;
39814;SDS011;25495;45.948;4.568;2022-10-16T16:00:12;4.68;;;1.80;;
39814;SDS011;25495;45.948;4.568;2022-10-16T16:02:42;2.65;;;2.10;;
39814;SDS011;25495;45.948;4.568;2022-10-16T16:05:09;4.30;;;2.35;;
39814;SDS011;25495;45.948;4.568;2022-10-16T16:07:38;4.55;;;2.17;;
39814;SDS011;25495;45.948;4.568;2022-10-16T16:10:05;4.57;;;2.30;;
39814;SDS011;25495;45.948;4.568;2022-10-16T16:12:34;2.75;;;1.90;;
39814;SDS011;25495;45.948;4.568;2022-10-16T16:15:02;3.60;;;2.28;;
39814;SDS011;25495;45.948;4.568;2022-10-16T16:17:30;5.40;;;2.40;;
39814;SDS011;25495;45.948;4.568;2022-10-16T16:19:56;3.92;;;1.80;;
39814;SDS011;25495;45.948;4.568;2022-10-16T16:22:22;3.22;;;2.28;;
39814;SDS011;25495;45.948;4.568;2022-10-16T16:24:48;5.82;;;2.25;;
39814;SDS011;25495;45.948;4.568;2022-10-16T16:27:15;5.47;;;1.92;;
39814;SDS011;25495;45.948;4.568;2022-10-16T16:29:41;3.53;;;2.40;;
39814;SDS011;25495;45.948;4.568;2022-10-16T16:32:07;4.28;;;2.15;;
39814;SDS011;25495;45.948;4.568;2022-10-16T16:34:34;3.45;;;2.20;;
39814;SDS011;25495;45.948;4.568;2022-10-16T16:37:00;5.00;;;2.25;;
39814;SDS011;25495;45.948;4.568;2022-10-16T16:39:26;3.30;;;1.90;;
39814;SDS011;25495;45.948;4.568;2022-10-16T16:41:52;4.28;;;2.40;;
39814;SDS011;25495;45.948;4.568;2022-10-16T16:44:21;3.33;;;2.60;;
39814;SDS011;25495;45.948;4.568;2022-10-16T16:46:47;4.72;;;2.63;;
39814;SDS011;25495;45.948;4.568;2022-10-16T16:49:13;4.25;;;2.72;;
39814;SDS011;25495;45.948;4.568;2022-10-16T16:51:40;4.07;;;2.15;;
39814;SDS011;25495;45.948;4.568;2022-10-16T16:54:06;5.07;;;2.60;;
39814;SDS011;25495;45.948;4.568;2022-10-16T16:56:34;3.35;;;2.38;;
39814;SDS011;25495;45.948;4.568;2022-10-16T16:59:00;3.92;;;2.20;;
39814;SDS011;25495;45.948;4.568;2022-10-16T17:01:27;12.65;;;2.55;;
39814;SDS011;25495;45.948;4.568;2022-10-16T17:03:54;3.85;;;2.58;;